Terminal Aerodrome Forecast
Issued by NWS Wilmington, OH

Current Version | Previous Version | Graphics & Text | Print | Product List | Glossary On
Versions: 1 2 3 4 5 6 7 8 9 10 11 12 13 14 15 16 17 18 19 20 21 22 23 24 25 26 27
000
FTUS41 KILN 231700 RRA
TAFDAY
TAF
KDAY 231749Z 2318/2418 16012KT P6SM OVC060
     FM231900 15012G18KT P6SM VCSH BKN035
     FM232200 13012G20KT 4SM -SHRA BR OVC020
      TEMPO 2323/2401 2SM SHRA OVC015
     FM240300 16014G22KT 5SM -SHRA BR OVC012
     FM240500 18016G24KT P6SM VCSH OVC006
     FM241000 19016G26KT P6SM VCSH BKN012
     FM241500 22022G36KT P6SM -SHRA FEW010 BKN025=

USA.gov is the U.S. government's official web portal to all federal, state and local government web resources and services.